sensor_id;sensor_type;location;lat;lon;timestamp;P1;P2;P0
31330;PMS5003;34067;39.548;-76.088;2023-07-24T00:00:23;11;10;
31330;PMS5003;34067;39.548;-76.088;2023-07-24T00:02:51;9;8;
31330;PMS5003;34067;39.548;-76.088;2023-07-24T00:05:19;10;10;
31330;PMS5003;34067;39.548;-76.088;2023-07-24T00:07:47;9;9;
31330;PMS5003;34067;39.548;-76.088;2023-07-24T00:10:14;10;9;
31330;PMS5003;34067;39.548;-76.088;2023-07-24T00:12:42;8;8;
31330;PMS5003;34067;39.548;-76.088;2023-07-24T00:15:10;9;9;
31330;PMS5003;34067;39.548;-76.088;2023-07-24T00:17:37;9;7;
31330;PMS5003;34067;39.548;-76.088;2023-07-24T00:20:05;12;10;
31330;PMS5003;34067;39.548;-76.088;2023-07-24T00:22:33;10;9;
31330;PMS5003;34067;39.548;-76.088;2023-07-24T00:25:01;10;10;
31330;PMS5003;34067;39.548;-76.088;2023-07-24T00:27:29;11;11;
31330;PMS5003;34067;39.548;-76.088;2023-07-24T00:29:57;9;9;
31330;PMS5003;34067;39.548;-76.088;2023-07-24T00:32:25;8;7;
31330;PMS5003;34067;39.548;-76.088;2023-07-24T00:34:53;11;10;
31330;PMS5003;34067;39.548;-76.088;2023-07-24T00:37:20;9;8;
31330;PMS5003;34067;39.548;-76.088;2023-07-24T00:39:48;9;9;
31330;PMS5003;34067;39.548;-76.088;2023-07-24T00:42:17;10;9;
31330;PMS5003;34067;39.548;-76.088;2023-07-24T00:44:44;11;10;
31330;PMS5003;34067;39.548;-76.088;2023-07-24T00:47:12;8;8;
31330;PMS5003;34067;39.548;-76.088;2023-07-24T00:49:40;9;9;
31330;PMS5003;34067;39.548;-76.088;2023-07-24T00:52:08;12;11;
31330;PMS5003;34067;39.548;-76.088;2023-07-24T00:54:37;12;11;
31330;PMS5003;34067;39.548;-76.088;2023-07-24T00:57:04;11;11;
31330;PMS5003;34067;39.548;-76.088;2023-07-24T00:59:33;15;14;
31330;PMS5003;34067;39.548;-76.088;2023-07-24T01:02:02;10;9;
31330;PMS5003;34067;39.548;-76.088;2023-07-24T01:04:30;12;10;
31330;PMS5003;34067;39.548;-76.088;2023-07-24T01:06:58;13;10;
31330;PMS5003;34067;39.548;-76.088;2023-07-24T01:09:26;10;9;
31330;PMS5003;34067;39.548;-76.088;2023-07-24T01:11:56;13;11;
31330;PMS5003;34067;39.548;-76.088;2023-07-24T01:14:29;17;17;
31330;PMS5003;34067;39.548;-76.088;2023-07-24T01:17:03;12;11;
31330;PMS5003;34067;39.548;-76.088;2023-07-24T01:19:36;17;13;
31330;PMS5003;34067;39.548;-76.088;2023-07-24T01:22:10;14;11;
31330;PMS5003;34067;39.548;-76.088;2023-07-24T01:24:56;12;11;
31330;PMS5003;34067;39.548;-76.088;2023-07-24T01:27:31;10;10;
31330;PMS5003;34067;39.548;-76.088;2023-07-24T01:29:59;11;9;
31330;PMS5003;34067;39.548;-76.088;2023-07-24T01:32:27;8;8;
31330;PMS5003;34067;39.548;-76.088;2023-07-24T01:34:54;10;10;
31330;PMS5003;34067;39.548;-76.088;2023-07-24T01:37:22;10;9;
31330;PMS5003;34067;39.548;-76.088;2023-07-24T01:39:51;11;10;
31330;PMS5003;34067;39.548;-76.088;2023-07-24T01:42:21;11;10;
31330;PMS5003;34067;39.548;-76.088;2023-07-24T01:44:52;11;10;
31330;PMS5003;34067;39.548;-76.088;2023-07-24T01:47:20;10;9;
31330;PMS5003;34067;39.548;-76.088;2023-07-24T01:49:48;10;10;
31330;PMS5003;34067;39.548;-76.088;2023-07-24T01:52:16;10;10;
31330;PMS5003;34067;39.548;-76.088;2023-07-24T01:54:44;10;9;
31330;PMS5003;34067;39.548;-76.088;2023-07-24T01:57:11;10;10;
31330;PMS5003;34067;39.548;-76.088;2023-07-24T01:59:39;12;11;
31330;PMS5003;34067;39.548;-76.088;2023-07-24T02:02:07;8;7;
31330;PMS5003;34067;39.548;-76.088;2023-07-24T02:04:34;11;11;
31330;PMS5003;34067;39.548;-76.088;2023-07-24T02:07:02;11;11;
31330;PMS5003;34067;39.548;-76.088;2023-07-24T02:09:31;11;10;
31330;PMS5003;34067;39.548;-76.088;2023-07-24T02:11:59;9;8;
31330;PMS5003;34067;39.548;-76.088;2023-07-24T02:14:28;12;10;
31330;PMS5003;34067;39.548;-76.088;2023-07-24T02:16:56;11;11;
31330;PMS5003;34067;39.548;-76.088;2023-07-24T02:19:24;13;11;
31330;PMS5003;34067;39.548;-76.088;2023-07-24T02:21:52;13;12;
31330;PMS5003;34067;39.548;-76.088;2023-07-24T02:24:20;12;10;
31330;PMS5003;34067;39.548;-76.088;2023-07-24T02:26:48;9;8;
31330;PMS5003;34067;39.548;-76.088;2023-07-24T02:29:16;9;9;
31330;PMS5003;34067;39.548;-76.088;2023-07-24T02:31:44;11;10;
31330;PMS5003;34067;39.548;-76.088;2023-07-24T02:34:12;14;13;
31330;PMS5003;34067;39.548;-76.088;2023-07-24T02:36:41;12;12;
31330;PMS5003;34067;39.548;-76.088;2023-07-24T02:39:09;10;10;
31330;PMS5003;34067;39.548;-76.088;2023-07-24T02:41:36;10;10;
31330;PMS5003;34067;39.548;-76.088;2023-07-24T02:44:05;10;9;
31330;PMS5003;34067;39.548;-76.088;2023-07-24T02:46:33;11;10;
31330;PMS5003;34067;39.548;-76.088;2023-07-24T02:49:01;11;11;
31330;PMS5003;34067;39.548;-76.088;2023-07-24T02:51:29;13;10;
31330;PMS5003;34067;39.548;-76.088;2023-07-24T02:53:57;11;9;
31330;PMS5003;34067;39.548;-76.088;2023-07-24T02:56:24;9;8;
31330;PMS5003;34067;39.548;-76.088;2023-07-24T02:58:52;9;9;
31330;PMS5003;34067;39.548;-76.088;2023-07-24T03:01:20;10;10;
31330;PMS5003;34067;39.548;-76.088;2023-07-24T03:03:47;11;10;
31330;PMS5003;34067;39.548;-76.088;2023-07-24T03:06:15;12;11;
31330;PMS5003;34067;39.548;-76.088;2023-07-24T03:08:43;11;9;
31330;PMS5003;34067;39.548;-76.088;2023-07-24T03:11:11;10;10;
31330;PMS5003;34067;39.548;-76.088;2023-07-24T03:13:38;13;11;
31330;PMS5003;34067;39.548;-76.088;2023-07-24T03:16:07;12;11;
31330;PMS5003;34067;39.548;-76.088;2023-07-24T03:18:34;12;11;
31330;PMS5003;34067;39.548;-76.088;2023-07-24T03:21:02;14;11;
31330;PMS5003;34067;39.548;-76.088;2023-07-24T03:23:30;10;9;
31330;PMS5003;34067;39.548;-76.088;2023-07-24T03:25:58;12;12;
31330;PMS5003;34067;39.548;-76.088;2023-07-24T03:28:26;8;8;
31330;PMS5003;34067;39.548;-76.088;2023-07-24T03:30:53;11;11;
31330;PMS5003;34067;39.548;-76.088;2023-07-24T03:33:22;9;9;
31330;PMS5003;34067;39.548;-76.088;2023-07-24T03:35:50;13;12;
31330;PMS5003;34067;39.548;-76.088;2023-07-24T03:38:18;11;10;
31330;PMS5003;34067;39.548;-76.088;2023-07-24T03:40:45;11;10;
31330;PMS5003;34067;39.548;-76.088;2023-07-24T03:43:13;10;10;
31330;PMS5003;34067;39.548;-76.088;2023-07-24T03:45:41;9;9;
31330;PMS5003;34067;39.548;-76.088;2023-07-24T03:48:09;10;10;
31330;PMS5003;34067;39.548;-76.088;2023-07-24T03:50:40;10;10;
31330;PMS5003;34067;39.548;-76.088;2023-07-24T03:53:08;11;11;
31330;PMS5003;34067;39.548;-76.088;2023-07-24T03:55:35;10;9;
31330;PMS5003;34067;39.548;-76.088;2023-07-24T03:58:04;9;9;
31330;PMS5003;34067;39.548;-76.088;2023-07-24T04:00:32;13;11;
31330;PMS5003;34067;39.548;-76.088;2023-07-24T04:02:59;12;11;
31330;PMS5003;34067;39.548;-76.088;2023-07-24T04:05:27;12;11;
31330;PMS5003;34067;39.548;-76.088;2023-07-24T04:07:55;11;10;
31330;PMS5003;34067;39.548;-76.088;2023-07-24T04:10:23;9;9;
31330;PMS5003;34067;39.548;-76.088;2023-07-24T04:12:51;8;8;
31330;PMS5003;34067;39.548;-76.088;2023-07-24T04:15:18;11;10;
31330;PMS5003;34067;39.548;-76.088;2023-07-24T04:17:47;9;9;
31330;PMS5003;34067;39.548;-76.088;2023-07-24T04:20:15;10;10;
31330;PMS5003;34067;39.548;-76.088;2023-07-24T04:22:43;11;11;
31330;PMS5003;34067;39.548;-76.088;2023-07-24T04:25:11;9;8;
31330;PMS5003;34067;39.548;-76.088;2023-07-24T04:27:38;10;9;
31330;PMS5003;34067;39.548;-76.088;2023-07-24T04:30:07;13;11;
31330;PMS5003;34067;39.548;-76.088;2023-07-24T04:32:35;11;10;
31330;PMS5003;34067;39.548;-76.088;2023-07-24T04:35:03;11;11;
31330;PMS5003;34067;39.548;-76.088;2023-07-24T04:37:31;13;13;
31330;PMS5003;34067;39.548;-76.088;2023-07-24T04:39:59;11;10;
31330;PMS5003;34067;39.548;-76.088;2023-07-24T04:42:26;9;9;
31330;PMS5003;34067;39.548;-76.088;2023-07-24T04:44:54;9;8;
31330;PMS5003;34067;39.548;-76.088;2023-07-24T04:47:22;12;11;
31330;PMS5003;34067;39.548;-76.088;2023-07-24T04:49:50;11;11;
31330;PMS5003;34067;39.548;-76.088;2023-07-24T04:52:18;10;10;
31330;PMS5003;34067;39.548;-76.088;2023-07-24T04:54:46;10;9;
31330;PMS5003;34067;39.548;-76.088;2023-07-24T04:57:14;10;9;
31330;PMS5003;34067;39.548;-76.088;2023-07-24T04:59:41;11;10;
31330;PMS5003;34067;39.548;-76.088;2023-07-24T05:03:10;12;10;
31330;PMS5003;34067;39.548;-76.088;2023-07-24T05:05:38;12;12;
31330;PMS5003;34067;39.548;-76.088;2023-07-24T05:08:06;12;12;
31330;PMS5003;34067;39.548;-76.088;2023-07-24T05:10:34;13;11;
31330;PMS5003;34067;39.548;-76.088;2023-07-24T05:13:03;7;7;
31330;PMS5003;34067;39.548;-76.088;2023-07-24T05:15:30;12;11;
31330;PMS5003;34067;39.548;-76.088;2023-07-24T05:17:58;14;13;
31330;PMS5003;34067;39.548;-76.088;2023-07-24T05:20:26;11;11;
31330;PMS5003;34067;39.548;-76.088;2023-07-24T05:22:54;8;8;
31330;PMS5003;34067;39.548;-76.088;2023-07-24T05:25:22;14;12;
31330;PMS5003;34067;39.548;-76.088;2023-07-24T05:27:50;17;14;
31330;PMS5003;34067;39.548;-76.088;2023-07-24T05:30:17;11;10;
31330;PMS5003;34067;39.548;-76.088;2023-07-24T05:32:45;12;12;
31330;PMS5003;34067;39.548;-76.088;2023-07-24T05:35:13;9;9;
31330;PMS5003;34067;39.548;-76.088;2023-07-24T05:37:41;12;11;
31330;PMS5003;34067;39.548;-76.088;2023-07-24T05:40:09;13;12;
31330;PMS5003;34067;39.548;-76.088;2023-07-24T05:42:37;11;10;
31330;PMS5003;34067;39.548;-76.088;2023-07-24T05:45:05;13;12;
31330;PMS5003;34067;39.548;-76.088;2023-07-24T05:47:35;9;9;
31330;PMS5003;34067;39.548;-76.088;2023-07-24T05:50:03;11;11;
31330;PMS5003;34067;39.548;-76.088;2023-07-24T05:52:31;12;11;
31330;PMS5003;34067;39.548;-76.088;2023-07-24T05:54:59;16;15;
31330;PMS5003;34067;39.548;-76.088;2023-07-24T05:57:26;13;12;
31330;PMS5003;34067;39.548;-76.088;2023-07-24T05:59:54;15;15;
31330;PMS5003;34067;39.548;-76.088;2023-07-24T06:02:22;14;13;
31330;PMS5003;34067;39.548;-76.088;2023-07-24T06:04:50;24;22;
31330;PMS5003;34067;39.548;-76.088;2023-07-24T06:07:18;26;25;
31330;PMS5003;34067;39.548;-76.088;2023-07-24T06:09:45;23;23;
31330;PMS5003;34067;39.548;-76.088;2023-07-24T06:12:13;21;21;
31330;PMS5003;34067;39.548;-76.088;2023-07-24T06:14:42;17;16;
31330;PMS5003;34067;39.548;-76.088;2023-07-24T06:17:10;14;14;
31330;PMS5003;34067;39.548;-76.088;2023-07-24T06:19:38;22;22;
31330;PMS5003;34067;39.548;-76.088;2023-07-24T06:22:05;12;12;
31330;PMS5003;34067;39.548;-76.088;2023-07-24T06:24:33;20;18;
31330;PMS5003;34067;39.548;-76.088;2023-07-24T06:27:01;23;23;
31330;PMS5003;34067;39.548;-76.088;2023-07-24T06:29:29;17;17;
31330;PMS5003;34067;39.548;-76.088;2023-07-24T06:31:57;17;16;
31330;PMS5003;34067;39.548;-76.088;2023-07-24T06:34:25;16;14;
31330;PMS5003;34067;39.548;-76.088;2023-07-24T06:36:52;18;17;
31330;PMS5003;34067;39.548;-76.088;2023-07-24T06:39:20;13;12;
31330;PMS5003;34067;39.548;-76.088;2023-07-24T06:41:49;25;24;
31330;PMS5003;34067;39.548;-76.088;2023-07-24T06:44:18;26;24;
31330;PMS5003;34067;39.548;-76.088;2023-07-24T06:46:46;25;23;
31330;PMS5003;34067;39.548;-76.088;2023-07-24T06:49:14;11;10;
31330;PMS5003;34067;39.548;-76.088;2023-07-24T06:51:42;15;12;
31330;PMS5003;34067;39.548;-76.088;2023-07-24T06:54:09;12;12;
31330;PMS5003;34067;39.548;-76.088;2023-07-24T06:56:37;10;10;
31330;PMS5003;34067;39.548;-76.088;2023-07-24T06:59:05;13;12;
31330;PMS5003;34067;39.548;-76.088;2023-07-24T07:01:32;11;11;
31330;PMS5003;34067;39.548;-76.088;2023-07-24T07:04:00;12;11;
31330;PMS5003;34067;39.548;-76.088;2023-07-24T07:06:29;9;9;
31330;PMS5003;34067;39.548;-76.088;2023-07-24T07:08:56;11;11;
31330;PMS5003;34067;39.548;-76.088;2023-07-24T07:11:24;13;11;
31330;PMS5003;34067;39.548;-76.088;2023-07-24T07:13:52;13;11;
31330;PMS5003;34067;39.548;-76.088;2023-07-24T07:16:20;14;12;
31330;PMS5003;34067;39.548;-76.088;2023-07-24T07:18:48;38;37;
31330;PMS5003;34067;39.548;-76.088;2023-07-24T07:21:16;25;25;
31330;PMS5003;34067;39.548;-76.088;2023-07-24T07:23:44;21;21;
31330;PMS5003;34067;39.548;-76.088;2023-07-24T07:26:12;11;10;
31330;PMS5003;34067;39.548;-76.088;2023-07-24T07:28:40;12;12;
31330;PMS5003;34067;39.548;-76.088;2023-07-24T07:31:07;15;13;
31330;PMS5003;34067;39.548;-76.088;2023-07-24T07:33:35;11;11;
31330;PMS5003;34067;39.548;-76.088;2023-07-24T07:36:03;10;10;
31330;PMS5003;34067;39.548;-76.088;2023-07-24T07:38:32;13;11;
31330;PMS5003;34067;39.548;-76.088;2023-07-24T07:41:03;12;12;
31330;PMS5003;34067;39.548;-76.088;2023-07-24T07:43:31;10;10;
31330;PMS5003;34067;39.548;-76.088;2023-07-24T07:45:59;11;11;
31330;PMS5003;34067;39.548;-76.088;2023-07-24T07:48:27;13;13;
31330;PMS5003;34067;39.548;-76.088;2023-07-24T07:50:54;8;8;
31330;PMS5003;34067;39.548;-76.088;2023-07-24T07:53:23;13;13;
31330;PMS5003;34067;39.548;-76.088;2023-07-24T07:55:55;14;13;
31330;PMS5003;34067;39.548;-76.088;2023-07-24T07:58:23;9;8;
31330;PMS5003;34067;39.548;-76.088;2023-07-24T08:00:51;13;12;
31330;PMS5003;34067;39.548;-76.088;2023-07-24T08:03:19;11;11;
31330;PMS5003;34067;39.548;-76.088;2023-07-24T08:05:46;22;21;
31330;PMS5003;34067;39.548;-76.088;2023-07-24T08:08:14;49;47;
31330;PMS5003;34067;39.548;-76.088;2023-07-24T08:10:43;31;30;
31330;PMS5003;34067;39.548;-76.088;2023-07-24T08:13:11;10;9;
31330;PMS5003;34067;39.548;-76.088;2023-07-24T08:15:38;12;12;
31330;PMS5003;34067;39.548;-76.088;2023-07-24T08:18:06;11;11;
31330;PMS5003;34067;39.548;-76.088;2023-07-24T08:20:35;11;10;
31330;PMS5003;34067;39.548;-76.088;2023-07-24T08:23:04;13;12;
31330;PMS5003;34067;39.548;-76.088;2023-07-24T08:25:31;13;11;
31330;PMS5003;34067;39.548;-76.088;2023-07-24T08:27:59;13;12;
31330;PMS5003;34067;39.548;-76.088;2023-07-24T08:30:27;11;11;
31330;PMS5003;34067;39.548;-76.088;2023-07-24T08:32:55;11;11;
31330;PMS5003;34067;39.548;-76.088;2023-07-24T08:35:22;10;9;
31330;PMS5003;34067;39.548;-76.088;2023-07-24T08:37:50;11;10;
31330;PMS5003;34067;39.548;-76.088;2023-07-24T08:40:18;12;10;
31330;PMS5003;34067;39.548;-76.088;2023-07-24T08:42:46;14;13;
31330;PMS5003;34067;39.548;-76.088;2023-07-24T08:45:16;11;10;
31330;PMS5003;34067;39.548;-76.088;2023-07-24T08:47:45;22;20;
31330;PMS5003;34067;39.548;-76.088;2023-07-24T08:50:13;15;12;
31330;PMS5003;34067;39.548;-76.088;2023-07-24T08:52:43;18;18;
31330;PMS5003;34067;39.548;-76.088;2023-07-24T08:55:11;11;9;
31330;PMS5003;34067;39.548;-76.088;2023-07-24T08:57:38;13;12;
31330;PMS5003;34067;39.548;-76.088;2023-07-24T09:00:06;13;11;
31330;PMS5003;34067;39.548;-76.088;2023-07-24T09:02:35;10;9;
31330;PMS5003;34067;39.548;-76.088;2023-07-24T09:05:03;8;8;
31330;PMS5003;34067;39.548;-76.088;2023-07-24T09:07:31;10;10;
31330;PMS5003;34067;39.548;-76.088;2023-07-24T09:09:59;11;10;
31330;PMS5003;34067;39.548;-76.088;2023-07-24T09:12:27;44;43;
31330;PMS5003;34067;39.548;-76.088;2023-07-24T09:15:02;23;22;
31330;PMS5003;34067;39.548;-76.088;2023-07-24T09:17:31;57;55;
31330;PMS5003;34067;39.548;-76.088;2023-07-24T09:19:59;11;11;
31330;PMS5003;34067;39.548;-76.088;2023-07-24T09:22:26;15;15;
31330;PMS5003;34067;39.548;-76.088;2023-07-24T09:24:55;34;33;
31330;PMS5003;34067;39.548;-76.088;2023-07-24T09:27:24;33;33;
31330;PMS5003;34067;39.548;-76.088;2023-07-24T09:29:54;20;20;
31330;PMS5003;34067;39.548;-76.088;2023-07-24T09:32:24;26;26;
31330;PMS5003;34067;39.548;-76.088;2023-07-24T09:34:53;19;19;
31330;PMS5003;34067;39.548;-76.088;2023-07-24T09:37:23;30;30;
31330;PMS5003;34067;39.548;-76.088;2023-07-24T09:39:51;15;15;
31330;PMS5003;34067;39.548;-76.088;2023-07-24T09:42:27;24;23;
31330;PMS5003;34067;39.548;-76.088;2023-07-24T09:44:56;17;17;
31330;PMS5003;34067;39.548;-76.088;2023-07-24T09:47:24;20;19;
31330;PMS5003;34067;39.548;-76.088;2023-07-24T09:49:53;18;17;
31330;PMS5003;34067;39.548;-76.088;2023-07-24T09:52:21;16;15;
31330;PMS5003;34067;39.548;-76.088;2023-07-24T09:54:55;13;13;
31330;PMS5003;34067;39.548;-76.088;2023-07-24T09:57:31;16;15;
31330;PMS5003;34067;39.548;-76.088;2023-07-24T10:00:00;16;15;
31330;PMS5003;34067;39.548;-76.088;2023-07-24T10:02:28;11;11;
31330;PMS5003;34067;39.548;-76.088;2023-07-24T10:04:56;12;12;
31330;PMS5003;34067;39.548;-76.088;2023-07-24T10:07:24;14;13;
31330;PMS5003;34067;39.548;-76.088;2023-07-24T10:09:52;17;15;
31330;PMS5003;34067;39.548;-76.088;2023-07-24T10:12:21;14;14;
31330;PMS5003;34067;39.548;-76.088;2023-07-24T10:14:50;16;16;
31330;PMS5003;34067;39.548;-76.088;2023-07-24T10:17:33;20;20;
31330;PMS5003;34067;39.548;-76.088;2023-07-24T10:20:02;11;11;
31330;PMS5003;34067;39.548;-76.088;2023-07-24T10:22:32;13;12;
31330;PMS5003;34067;39.548;-76.088;2023-07-24T10:24:59;12;12;
31330;PMS5003;34067;39.548;-76.088;2023-07-24T10:27:27;11;10;
31330;PMS5003;34067;39.548;-76.088;2023-07-24T10:29:59;15;15;
31330;PMS5003;34067;39.548;-76.088;2023-07-24T10:32:28;31;30;
31330;PMS5003;34067;39.548;-76.088;2023-07-24T10:34:58;31;31;
31330;PMS5003;34067;39.548;-76.088;2023-07-24T10:37:34;25;24;
31330;PMS5003;34067;39.548;-76.088;2023-07-24T10:40:03;22;20;
31330;PMS5003;34067;39.548;-76.088;2023-07-24T10:42:32;19;19;
31330;PMS5003;34067;39.548;-76.088;2023-07-24T10:45:07;21;19;
31330;PMS5003;34067;39.548;-76.088;2023-07-24T10:47:36;39;37;
31330;PMS5003;34067;39.548;-76.088;2023-07-24T10:50:04;20;19;
31330;PMS5003;34067;39.548;-76.088;2023-07-24T10:52:33;20;20;
31330;PMS5003;34067;39.548;-76.088;2023-07-24T10:55:02;20;18;
31330;PMS5003;34067;39.548;-76.088;2023-07-24T10:57:30;25;23;
31330;PMS5003;34067;39.548;-76.088;2023-07-24T10:59:59;37;37;
31330;PMS5003;34067;39.548;-76.088;2023-07-24T11:02:27;64;64;
31330;PMS5003;34067;39.548;-76.088;2023-07-24T11:04:55;43;43;
31330;PMS5003;34067;39.548;-76.088;2023-07-24T11:07:31;41;40;
31330;PMS5003;34067;39.548;-76.088;2023-07-24T11:10:00;42;41;
31330;PMS5003;34067;39.548;-76.088;2023-07-24T11:12:28;54;52;
31330;PMS5003;34067;39.548;-76.088;2023-07-24T11:14:56;45;44;
31330;PMS5003;34067;39.548;-76.088;2023-07-24T11:17:33;46;46;
31330;PMS5003;34067;39.548;-76.088;2023-07-24T11:20:06;49;49;
31330;PMS5003;34067;39.548;-76.088;2023-07-24T11:22:35;61;61;
31330;PMS5003;34067;39.548;-76.088;2023-07-24T11:25:05;79;78;
31330;PMS5003;34067;39.548;-76.088;2023-07-24T11:27:39;78;78;
31330;PMS5003;34067;39.548;-76.088;2023-07-24T11:30:08;97;96;
31330;PMS5003;34067;39.548;-76.088;2023-07-24T11:33:55;101;100;
31330;PMS5003;34067;39.548;-76.088;2023-07-24T11:34:09;99;99;
31330;PMS5003;34067;39.548;-76.088;2023-07-24T11:34:21;99;99;
31330;PMS5003;34067;39.548;-76.088;2023-07-24T11:36:49;67;67;
31330;PMS5003;34067;39.548;-76.088;2023-07-24T11:39:21;106;105;
31330;PMS5003;34067;39.548;-76.088;2023-07-24T11:41:49;78;78;
31330;PMS5003;34067;39.548;-76.088;2023-07-24T11:44:23;38;38;
31330;PMS5003;34067;39.548;-76.088;2023-07-24T11:46:52;98;98;
31330;PMS5003;34067;39.548;-76.088;2023-07-24T11:49:28;65;65;
31330;PMS5003;34067;39.548;-76.088;2023-07-24T11:51:59;92;92;
31330;PMS5003;34067;39.548;-76.088;2023-07-24T11:54:28;52;52;
31330;PMS5003;34067;39.548;-76.088;2023-07-24T11:56:56;64;64;
31330;PMS5003;34067;39.548;-76.088;2023-07-24T11:59:24;44;43;
31330;PMS5003;34067;39.548;-76.088;2023-07-24T12:01:52;51;50;
31330;PMS5003;34067;39.548;-76.088;2023-07-24T12:04:20;52;51;
31330;PMS5003;34067;39.548;-76.088;2023-07-24T12:06:47;81;81;
31330;PMS5003;34067;39.548;-76.088;2023-07-24T12:09:15;100;100;
31330;PMS5003;34067;39.548;-76.088;2023-07-24T12:11:43;106;105;
31330;PMS5003;34067;39.548;-76.088;2023-07-24T12:14:12;106;105;
31330;PMS5003;34067;39.548;-76.088;2023-07-24T12:16:40;130;129;
31330;PMS5003;34067;39.548;-76.088;2023-07-24T12:19:08;173;173;
31330;PMS5003;34067;39.548;-76.088;2023-07-24T12:21:36;182;182;
31330;PMS5003;34067;39.548;-76.088;2023-07-24T12:24:05;195;195;
31330;PMS5003;34067;39.548;-76.088;2023-07-24T12:26:33;179;178;
31330;PMS5003;34067;39.548;-76.088;2023-07-24T12:29:01;159;158;
31330;PMS5003;34067;39.548;-76.088;2023-07-24T12:31:29;146;145;
31330;PMS5003;34067;39.548;-76.088;2023-07-24T12:33:57;164;164;
31330;PMS5003;34067;39.548;-76.088;2023-07-24T12:36:25;189;189;
31330;PMS5003;34067;39.548;-76.088;2023-07-24T12:38:53;260;260;
31330;PMS5003;34067;39.548;-76.088;2023-07-24T12:41:21;295;293;
31330;PMS5003;34067;39.548;-76.088;2023-07-24T12:43:48;285;284;
31330;PMS5003;34067;39.548;-76.088;2023-07-24T12:46:15;287;287;
31330;PMS5003;34067;39.548;-76.088;2023-07-24T12:48:44;282;282;
31330;PMS5003;34067;39.548;-76.088;2023-07-24T12:51:11;250;250;
31330;PMS5003;34067;39.548;-76.088;2023-07-24T12:53:39;29;29;
31330;PMS5003;34067;39.548;-76.088;2023-07-24T12:56:07;18;17;
31330;PMS5003;34067;39.548;-76.088;2023-07-24T12:58:35;17;17;
31330;PMS5003;34067;39.548;-76.088;2023-07-24T13:01:03;14;13;
31330;PMS5003;34067;39.548;-76.088;2023-07-24T13:03:30;18;18;
31330;PMS5003;34067;39.548;-76.088;2023-07-24T13:05:58;19;19;
31330;PMS5003;34067;39.548;-76.088;2023-07-24T13:08:27;19;18;
31330;PMS5003;34067;39.548;-76.088;2023-07-24T13:10:55;19;18;
31330;PMS5003;34067;39.548;-76.088;2023-07-24T13:13:22;18;16;
31330;PMS5003;34067;39.548;-76.088;2023-07-24T13:15:50;14;14;
31330;PMS5003;34067;39.548;-76.088;2023-07-24T13:18:18;37;36;
31330;PMS5003;34067;39.548;-76.088;2023-07-24T13:20:47;40;39;
31330;PMS5003;34067;39.548;-76.088;2023-07-24T13:23:15;51;51;
31330;PMS5003;34067;39.548;-76.088;2023-07-24T13:25:43;34;34;
31330;PMS5003;34067;39.548;-76.088;2023-07-24T13:28:11;22;21;
31330;PMS5003;34067;39.548;-76.088;2023-07-24T13:30:39;14;13;
31330;PMS5003;34067;39.548;-76.088;2023-07-24T13:33:07;14;14;
31330;PMS5003;34067;39.548;-76.088;2023-07-24T13:35:35;40;39;
31330;PMS5003;34067;39.548;-76.088;2023-07-24T13:38:03;19;19;
31330;PMS5003;34067;39.548;-76.088;2023-07-24T13:40:32;23;21;
31330;PMS5003;34067;39.548;-76.088;2023-07-24T13:43:00;25;23;
31330;PMS5003;34067;39.548;-76.088;2023-07-24T13:45:28;23;23;
31330;PMS5003;34067;39.548;-76.088;2023-07-24T13:47:56;26;25;
31330;PMS5003;34067;39.548;-76.088;2023-07-24T13:50:24;21;20;
31330;PMS5003;34067;39.548;-76.088;2023-07-24T13:52:52;17;15;
31330;PMS5003;34067;39.548;-76.088;2023-07-24T13:55:20;13;13;
31330;PMS5003;34067;39.548;-76.088;2023-07-24T13:57:48;19;19;
31330;PMS5003;34067;39.548;-76.088;2023-07-24T14:00:16;37;36;
31330;PMS5003;34067;39.548;-76.088;2023-07-24T14:02:44;41;41;
31330;PMS5003;34067;39.548;-76.088;2023-07-24T14:05:12;27;25;
31330;PMS5003;34067;39.548;-76.088;2023-07-24T14:07:40;44;43;
31330;PMS5003;34067;39.548;-76.088;2023-07-24T14:10:08;49;49;
31330;PMS5003;34067;39.548;-76.088;2023-07-24T14:12:36;30;29;
31330;PMS5003;34067;39.548;-76.088;2023-07-24T14:15:04;26;25;
31330;PMS5003;34067;39.548;-76.088;2023-07-24T14:17:33;32;32;
31330;PMS5003;34067;39.548;-76.088;2023-07-24T14:20:01;24;23;
31330;PMS5003;34067;39.548;-76.088;2023-07-24T14:22:29;16;15;
31330;PMS5003;34067;39.548;-76.088;2023-07-24T14:24:57;30;29;
31330;PMS5003;34067;39.548;-76.088;2023-07-24T14:27:24;14;14;
31330;PMS5003;34067;39.548;-76.088;2023-07-24T14:29:52;17;16;
31330;PMS5003;34067;39.548;-76.088;2023-07-24T14:32:20;16;15;
31330;PMS5003;34067;39.548;-76.088;2023-07-24T14:34:49;52;51;
31330;PMS5003;34067;39.548;-76.088;2023-07-24T14:37:18;22;19;
31330;PMS5003;34067;39.548;-76.088;2023-07-24T14:39:46;39;38;
31330;PMS5003;34067;39.548;-76.088;2023-07-24T14:42:15;34;33;
31330;PMS5003;34067;39.548;-76.088;2023-07-24T14:44:43;57;57;
31330;PMS5003;34067;39.548;-76.088;2023-07-24T14:47:10;36;36;
31330;PMS5003;34067;39.548;-76.088;2023-07-24T14:49:38;29;28;
31330;PMS5003;34067;39.548;-76.088;2023-07-24T14:52:06;16;16;
31330;PMS5003;34067;39.548;-76.088;2023-07-24T14:54:34;46;45;
31330;PMS5003;34067;39.548;-76.088;2023-07-24T14:57:02;13;13;
31330;PMS5003;34067;39.548;-76.088;2023-07-24T14:59:31;17;15;
31330;PMS5003;34067;39.548;-76.088;2023-07-24T15:01:58;10;10;
31330;PMS5003;34067;39.548;-76.088;2023-07-24T15:04:26;12;11;
31330;PMS5003;34067;39.548;-76.088;2023-07-24T15:06:54;11;9;
31330;PMS5003;34067;39.548;-76.088;2023-07-24T15:09:21;10;9;
31330;PMS5003;34067;39.548;-76.088;2023-07-24T15:11:49;11;11;
31330;PMS5003;34067;39.548;-76.088;2023-07-24T15:14:17;13;11;
31330;PMS5003;34067;39.548;-76.088;2023-07-24T15:16:45;10;9;
31330;PMS5003;34067;39.548;-76.088;2023-07-24T15:19:13;10;9;
31330;PMS5003;34067;39.548;-76.088;2023-07-24T15:21:40;11;11;
31330;PMS5003;34067;39.548;-76.088;2023-07-24T15:24:08;12;11;
31330;PMS5003;34067;39.548;-76.088;2023-07-24T15:26:36;11;10;
31330;PMS5003;34067;39.548;-76.088;2023-07-24T15:29:03;11;10;
31330;PMS5003;34067;39.548;-76.088;2023-07-24T15:31:31;11;11;
31330;PMS5003;34067;39.548;-76.088;2023-07-24T15:33:59;9;9;
31330;PMS5003;34067;39.548;-76.088;2023-07-24T15:36:27;11;11;
31330;PMS5003;34067;39.548;-76.088;2023-07-24T15:38:54;10;9;
31330;PMS5003;34067;39.548;-76.088;2023-07-24T15:41:22;11;11;
31330;PMS5003;34067;39.548;-76.088;2023-07-24T15:43:50;11;10;
31330;PMS5003;34067;39.548;-76.088;2023-07-24T15:46:19;10;9;
31330;PMS5003;34067;39.548;-76.088;2023-07-24T15:48:46;10;10;
31330;PMS5003;34067;39.548;-76.088;2023-07-24T15:51:14;10;9;
31330;PMS5003;34067;39.548;-76.088;2023-07-24T15:53:42;9;8;